Time,TemperatureF,DewpointF,PressureIn,WindDirection,WindDirectionDegrees,WindSpeedMPH,WindSpeedGustMPH,Humidity,HourlyPrecipIn,Conditions,Clouds,dailyrainin,SoftwareType,DateUTC
2014-01-18 00:00:00,36.3,25.3,30.27,North,6,1.0,1.0,64,0.00,,,0.00,Wunderground v.1.15,2014-01-18 06:00:00,
2014-01-18 00:05:00,36.1,25.5,30.26,North,4,1.0,12.0,65,0.00,,,0.00,Wunderground v.1.15,2014-01-18 06:05:00,
2014-01-18 00:15:00,35.5,26.0,30.27,North,3,0.0,12.0,68,0.00,,,0.00,Wunderground v.1.15,2014-01-18 06:15:00,
2014-01-18 00:25:00,35.0,25.5,30.26,NNW,347,0.0,12.0,68,0.00,,,0.00,Wunderground v.1.15,2014-01-18 06:25:00,
2014-01-18 00:30:00,35.0,24.8,30.26,NNW,345,1.0,1.0,66,0.00,,,0.00,Wunderground v.1.15,2014-01-18 06:30:00,
2014-01-18 00:35:00,35.0,25.1,30.26,North,355,1.0,2.0,67,0.00,,,0.00,Wunderground v.1.15,2014-01-18 06:35:00,
2014-01-18 00:40:00,35.3,25.1,30.27,North,353,1.0,1.0,66,0.00,,,0.00,Wunderground v.1.15,2014-01-18 06:40:00,
2014-01-18 00:45:00,35.4,24.4,30.27,North,353,0.0,12.0,64,0.00,,,0.00,Wunderground v.1.15,2014-01-18 06:45:00,
2014-01-18 00:50:00,35.4,25.2,30.27,North,353,0.0,12.0,66,0.00,,,0.00,Wunderground v.1.15,2014-01-18 06:50:00,
2014-01-18 01:00:00,35.4,25.5,30.27,SW,217,0.0,12.0,67,0.00,,,0.00,Wunderground v.1.15,2014-01-18 07:00:00,
2014-01-18 01:05:00,35.5,25.6,30.27,SW,217,0.0,12.0,67,0.00,,,0.00,Wunderground v.1.15,2014-01-18 07:05:00,
2014-01-18 01:10:00,35.6,25.4,30.28,SW,217,0.0,12.0,66,0.00,,,0.00,Wunderground v.1.15,2014-01-18 07:10:00,
2014-01-18 01:15:00,35.3,26.1,30.28,SW,217,0.0,12.0,69,0.00,,,0.00,Wunderground v.1.15,2014-01-18 07:15:00,
2014-01-18 01:20:00,34.6,26.2,30.28,SW,217,0.0,12.0,71,0.00,,,0.00,Wunderground v.1.15,2014-01-18 07:20:00,
2014-01-18 01:30:00,34.2,25.4,30.28,SW,217,0.0,12.0,70,0.00,,,0.00,Wunderground v.1.15,2014-01-18 07:30:00,
2014-01-18 01:35:00,33.9,27.4,30.28,SW,217,0.0,12.0,77,0.00,,,0.00,Wunderground v.1.15,2014-01-18 07:35:00,
2014-01-18 01:40:00,33.2,27.7,30.28,SW,217,0.0,12.0,80,0.00,,,0.00,Wunderground v.1.15,2014-01-18 07:40:00,
2014-01-18 01:45:00,32.6,27.7,30.28,SW,217,0.0,12.0,82,0.00,,,0.00,Wunderground v.1.15,2014-01-18 07:45:00,
2014-01-18 01:50:00,32.0,27.1,30.28,SW,217,0.0,12.0,82,0.00,,,0.00,Wunderground v.1.15,2014-01-18 07:50:00,
2014-01-18 01:55:00,32.2,27.6,30.29,SW,217,0.0,12.0,83,0.00,,,0.00,Wunderground v.1.15,2014-01-18 07:55:00,
2014-01-18 02:05:00,32.9,26.5,30.29,SW,219,0.0,12.0,77,0.00,,,0.00,Wunderground v.1.15,2014-01-18 08:05:00,
2014-01-18 02:10:00,33.0,26.9,30.29,SW,219,0.0,12.0,78,0.00,,,0.00,Wunderground v.1.15,2014-01-18 08:10:00,
2014-01-18 02:15:00,32.8,27.6,30.29,SW,219,0.0,12.0,81,0.00,,,0.00,Wunderground v.1.15,2014-01-18 08:15:00,
2014-01-18 02:20:00,32.6,28.6,30.29,SW,219,0.0,12.0,85,0.00,,,0.00,Wunderground v.1.15,2014-01-18 08:20:00,
2014-01-18 02:25:00,32.3,28.9,30.29,SW,218,0.0,12.0,87,0.00,,,0.00,Wunderground v.1.15,2014-01-18 08:25:00,
2014-01-18 02:30:00,31.9,28.5,30.29,SW,218,0.0,12.0,87,0.00,,,0.00,Wunderground v.1.15,2014-01-18 08:30:00,
2014-01-18 02:35:00,31.6,28.5,30.30,SW,218,0.0,12.0,88,0.00,,,0.00,Wunderground v.1.15,2014-01-18 08:35:00,
2014-01-18 02:45:00,30.9,28.0,30.30,SW,218,0.0,12.0,89,0.00,,,0.00,Wunderground v.1.15,2014-01-18 08:45:00,
2014-01-18 02:50:00,30.8,28.2,30.30,SW,218,0.0,12.0,90,0.00,,,0.00,Wunderground v.1.15,2014-01-18 08:50:00,
2014-01-18 02:55:00,30.8,28.2,30.30,SW,218,0.0,12.0,90,0.00,,,0.00,Wunderground v.1.15,2014-01-18 08:55:00,
2014-01-18 03:00:00,30.5,27.6,30.30,SW,218,0.0,12.0,89,0.00,,,0.00,Wunderground v.1.15,2014-01-18 09:00:00,
2014-01-18 03:05:00,30.6,27.7,30.30,SW,218,0.0,12.0,89,0.00,,,0.00,Wunderground v.1.15,2014-01-18 09:05:00,
2014-01-18 03:10:00,30.6,28.0,30.30,SW,218,0.0,12.0,90,0.00,,,0.00,Wunderground v.1.15,2014-01-18 09:10:00,
2014-01-18 03:15:00,30.4,27.8,30.30,SW,218,0.0,12.0,90,0.00,,,0.00,Wunderground v.1.15,2014-01-18 09:15:00,
2014-01-18 03:20:00,30.0,27.4,30.30,SW,218,0.0,12.0,90,0.00,,,0.00,Wunderground v.1.15,2014-01-18 09:20:00,
2014-01-18 03:25:00,29.7,27.4,30.30,SW,218,0.0,12.0,91,0.00,,,0.00,Wunderground v.1.15,2014-01-18 09:25:00,
2014-01-18 03:30:00,30.0,27.4,30.30,SW,219,0.0,12.0,90,0.00,,,0.00,Wunderground v.1.15,2014-01-18 09:30:00,
2014-01-18 03:40:00,30.5,26.8,30.30,WSW,254,0.0,12.0,86,0.00,,,0.00,Wunderground v.1.15,2014-01-18 09:40:00,
2014-01-18 03:45:00,30.5,26.8,30.29,North,359,0.0,12.0,86,0.00,,,0.00,Wunderground v.1.15,2014-01-18 09:45:00,
2014-01-18 03:50:00,30.6,27.2,30.30,NW,320,0.0,12.0,87,0.00,,,0.00,Wunderground v.1.15,2014-01-18 09:50:00,
2014-01-18 03:55:00,30.6,26.9,30.30,NW,320,0.0,12.0,86,0.00,,,0.00,Wunderground v.1.15,2014-01-18 09:55:00,
2014-01-18 04:00:00,30.8,26.8,30.30,NW,320,0.0,12.0,85,0.00,,,0.00,Wunderground v.1.15,2014-01-18 10:00:00,
2014-01-18 04:10:00,30.9,26.6,30.29,NW,320,0.0,12.0,84,0.00,,,0.00,Wunderground v.1.15,2014-01-18 10:10:00,
2014-01-18 04:15:00,30.8,26.2,30.29,NW,320,0.0,12.0,83,0.00,,,0.00,Wunderground v.1.15,2014-01-18 10:15:00,
2014-01-18 04:20:00,30.8,27.4,30.29,SSW,201,0.0,12.0,87,0.00,,,0.00,Wunderground v.1.15,2014-01-18 10:20:00,
2014-01-18 04:25:00,30.4,27.5,30.30,SSW,200,0.0,12.0,89,0.00,,,0.00,Wunderground v.1.15,2014-01-18 10:25:00,
2014-01-18 04:30:00,30.2,27.6,30.29,SSW,199,0.0,12.0,90,0.00,,,0.00,Wunderground v.1.15,2014-01-18 10:30:00,
2014-01-18 04:35:00,30.0,27.4,30.30,SSW,200,0.0,12.0,90,0.00,,,0.00,Wunderground v.1.15,2014-01-18 10:35:00,
2014-01-18 04:45:00,29.3,27.0,30.30,SSW,200,0.0,12.0,91,0.00,,,0.00,Wunderground v.1.15,2014-01-18 10:45:00,
2014-01-18 04:50:00,28.9,26.6,30.30,SSW,200,0.0,12.0,91,0.00,,,0.00,Wunderground v.1.15,2014-01-18 10:50:00,
2014-01-18 04:55:00,28.9,26.9,30.30,SSW,200,0.0,12.0,92,0.00,,,0.00,Wunderground v.1.15,2014-01-18 10:55:00,
2014-01-18 05:00:00,28.8,26.8,30.30,SSW,200,0.0,12.0,92,0.00,,,0.00,Wunderground v.1.15,2014-01-18 11:00:00,
2014-01-18 05:05:00,28.6,26.8,30.29,SSW,200,0.0,12.0,93,0.00,,,0.00,Wunderground v.1.15,2014-01-18 11:05:00,
2014-01-18 05:15:00,28.6,27.1,30.29,SSW,199,0.0,12.0,94,0.00,,,0.00,Wunderground v.1.15,2014-01-18 11:15:00,
2014-01-18 05:20:00,28.5,26.7,30.29,SSW,200,0.0,12.0,93,0.00,,,0.00,Wunderground v.1.15,2014-01-18 11:20:00,
2014-01-18 05:25:00,28.1,26.3,30.29,SSW,200,0.0,12.0,93,0.00,,,0.00,Wunderground v.1.15,2014-01-18 11:25:00,
2014-01-18 05:30:00,28.1,26.3,30.29,SSW,200,0.0,12.0,93,0.00,,,0.00,Wunderground v.1.15,2014-01-18 11:30:00,
2014-01-18 05:35:00,28.2,26.7,30.29,SSW,199,0.0,12.0,94,0.00,,,0.00,Wunderground v.1.15,2014-01-18 11:35:00,
2014-01-18 05:40:00,28.1,26.3,30.28,SSW,200,0.0,12.0,93,0.00,,,0.00,Wunderground v.1.15,2014-01-18 11:40:00,
2014-01-18 05:50:00,28.3,27.1,30.29,SSW,200,0.0,12.0,95,0.00,,,0.00,Wunderground v.1.15,2014-01-18 11:50:00,
2014-01-18 05:55:00,28.7,27.4,30.29,SSW,200,0.0,12.0,95,0.00,,,0.00,Wunderground v.1.15,2014-01-18 11:55:00,
2014-01-18 06:00:00,28.7,27.4,30.29,SSW,199,0.0,12.0,95,0.00,,,0.00,Wunderground v.1.15,2014-01-18 12:00:00,
2014-01-18 06:05:00,28.7,27.4,30.28,SSW,199,0.0,12.0,95,0.00,,,0.00,Wunderground v.1.15,2014-01-18 12:05:00,
2014-01-18 06:10:00,28.5,27.3,30.28,SSW,200,0.0,12.0,95,0.00,,,0.00,Wunderground v.1.15,2014-01-18 12:10:00,
2014-01-18 06:15:00,28.5,27.3,30.28,SSW,200,0.0,12.0,95,0.00,,,0.00,Wunderground v.1.15,2014-01-18 12:15:00,
2014-01-18 06:20:00,28.2,26.7,30.28,SSW,200,0.0,12.0,94,0.00,,,0.00,Wunderground v.1.15,2014-01-18 12:20:00,
2014-01-18 06:25:00,28.1,26.9,30.28,SSW,200,0.0,12.0,95,0.00,,,0.00,Wunderground v.1.15,2014-01-18 12:25:00,
2014-01-18 06:30:00,28.1,26.9,30.28,SSW,200,0.0,12.0,95,0.00,,,0.00,Wunderground v.1.15,2014-01-18 12:30:00,
2014-01-18 06:35:00,28.2,27.0,30.28,SSW,200,0.0,12.0,95,0.00,,,0.00,Wunderground v.1.15,2014-01-18 12:35:00,
2014-01-18 06:40:00,28.0,26.8,30.28,SSW,200,0.0,12.0,95,0.00,,,0.00,Wunderground v.1.15,2014-01-18 12:40:00,
2014-01-18 06:50:00,27.7,26.5,30.28,SSW,199,0.0,12.0,95,0.00,,,0.00,Wunderground v.1.15,2014-01-18 12:50:00,
2014-01-18 06:55:00,27.8,26.6,30.28,SSW,199,0.0,12.0,95,0.00,,,0.00,Wunderground v.1.15,2014-01-18 12:55:00,
2014-01-18 07:00:00,27.9,26.7,30.28,SSW,199,0.0,12.0,95,0.00,,,0.00,Wunderground v.1.15,2014-01-18 13:00:00,
2014-01-18 07:05:00,27.9,26.7,30.28,SSW,200,0.0,12.0,95,0.00,,,0.00,Wunderground v.1.15,2014-01-18 13:05:00,
2014-01-18 07:10:00,28.0,26.8,30.27,SSW,199,0.0,12.0,95,0.00,,,0.00,Wunderground v.1.15,2014-01-18 13:10:00,
2014-01-18 07:15:00,28.2,27.0,30.28,SSW,198,0.0,12.0,95,0.00,,,0.00,Wunderground v.1.15,2014-01-18 13:15:00,
2014-01-18 07:25:00,29.0,27.7,30.27,SSW,198,0.0,12.0,95,0.00,,,0.00,Wunderground v.1.15,2014-01-18 13:25:00,
2014-01-18 07:30:00,29.8,28.5,30.28,SSW,198,0.0,12.0,95,0.00,,,0.00,Wunderground v.1.15,2014-01-18 13:30:00,
2014-01-18 07:35:00,30.5,29.2,30.28,SSW,198,0.0,12.0,95,0.00,,,0.00,Wunderground v.1.15,2014-01-18 13:35:00,
2014-01-18 07:40:00,31.3,30.0,30.28,SW,219,0.0,12.0,95,0.00,,,0.00,Wunderground v.1.15,2014-01-18 13:40:00,
2014-01-18 07:45:00,33.1,30.8,30.28,SSE,166,0.0,12.0,91,0.00,,,0.00,Wunderground v.1.15,2014-01-18 13:45:00,
2014-01-18 07:55:00,35.2,30.6,30.28,SSE,158,0.0,12.0,83,0.00,,,0.00,Wunderground v.1.15,2014-01-18 13:55:00,
2014-01-18 08:00:00,35.3,29.7,30.28,SSE,156,0.0,12.0,80,0.00,,,0.00,Wunderground v.1.15,2014-01-18 14:00:00,
2014-01-18 08:05:00,35.8,28.3,30.28,SSE,147,0.0,12.0,74,0.00,,,0.00,Wunderground v.1.15,2014-01-18 14:05:00,
2014-01-18 08:10:00,36.5,27.6,30.28,SSE,152,0.0,12.0,70,0.00,,,0.00,Wunderground v.1.15,2014-01-18 14:10:00,
2014-01-18 08:15:00,37.5,27.9,30.28,SSE,165,0.0,12.0,68,0.00,,,0.00,Wunderground v.1.15,2014-01-18 14:15:00,
2014-01-18 08:20:00,38.4,26.9,30.28,SE,131,0.0,12.0,63,0.00,,,0.00,Wunderground v.1.15,2014-01-18 14:20:00,
2014-01-18 08:30:00,39.9,27.1,30.28,SE,135,1.0,12.0,60,0.00,,,0.00,Wunderground v.1.15,2014-01-18 14:30:00,
2014-01-18 08:35:00,40.7,28.7,30.29,SE,134,1.0,12.0,62,0.00,,,0.00,Wunderground v.1.15,2014-01-18 14:35:00,
2014-01-18 08:40:00,41.4,29.3,30.28,SE,124,1.0,12.0,62,0.00,,,0.00,Wunderground v.1.15,2014-01-18 14:40:00,
2014-01-18 08:45:00,41.9,30.6,30.29,SE,136,2.0,12.0,64,0.00,,,0.00,Wunderground v.1.15,2014-01-18 14:45:00,
2014-01-18 08:50:00,42.8,30.7,30.29,SE,138,2.0,12.0,62,0.00,,,0.00,Wunderground v.1.15,2014-01-18 14:50:00,
2014-01-18 09:00:00,44.5,30.2,30.29,SSE,155,3.0,12.0,57,0.00,,,0.00,Wunderground v.1.15,2014-01-18 15:00:00,
2014-01-18 09:05:00,45.4,29.3,30.29,SE,143,3.0,12.0,53,0.00,,,0.00,Wunderground v.1.15,2014-01-18 15:05:00,
2014-01-18 09:10:00,45.7,27.6,30.30,SSE,155,5.0,12.0,49,0.00,,,0.00,Wunderground v.1.15,2014-01-18 15:10:00,
2014-01-18 09:15:00,46.0,26.9,30.30,SSE,148,6.0,12.0,47,0.00,,,0.00,Wunderground v.1.15,2014-01-18 15:15:00,
2014-01-18 09:20:00,46.4,27.2,30.30,SE,136,6.0,12.0,47,0.00,,,0.00,Wunderground v.1.15,2014-01-18 15:20:00,
2014-01-18 09:25:00,46.9,27.2,30.30,SSE,162,6.0,12.0,46,0.00,,,0.00,Wunderground v.1.15,2014-01-18 15:25:00,
2014-01-18 09:30:00,47.3,27.0,30.30,SE,139,6.0,6.0,45,0.00,,,0.00,Wunderground v.1.15,2014-01-18 15:30:00,
2014-01-18 09:40:00,48.1,26.1,30.30,SSE,153,5.0,12.0,42,0.00,,,0.00,Wunderground v.1.15,2014-01-18 15:40:00,
2014-01-18 09:45:00,48.4,26.9,30.30,SSE,155,5.0,12.0,43,0.00,,,0.00,Wunderground v.1.15,2014-01-18 15:45:00,
2014-01-18 09:50:00,49.0,27.5,30.30,SSE,156,5.0,12.0,43,0.00,,,0.00,Wunderground v.1.15,2014-01-18 15:50:00,
2014-01-18 09:55:00,49.5,25.5,30.30,South,171,5.0,12.0,39,0.00,,,0.00,Wunderground v.1.15,2014-01-18 15:55:00,
2014-01-18 10:00:00,50.1,26.7,30.30,South,179,5.0,12.0,40,0.00,,,0.00,Wunderground v.1.15,2014-01-18 16:00:00,
2014-01-18 10:05:00,50.5,26.4,30.30,SE,141,6.0,12.0,39,0.00,,,0.00,Wunderground v.1.15,2014-01-18 16:05:00,
2014-01-18 10:10:00,50.8,27.3,30.29,SSE,155,6.0,12.0,40,0.00,,,0.00,Wunderground v.1.15,2014-01-18 16:10:00,
2014-01-18 10:15:00,51.0,27.5,30.29,SSE,150,6.0,12.0,40,0.00,,,0.00,Wunderground v.1.15,2014-01-18 16:15:00,
2014-01-18 10:20:00,51.4,26.6,30.29,SE,141,6.0,6.0,38,0.00,,,0.00,Wunderground v.1.15,2014-01-18 16:20:00,
2014-01-18 10:25:00,51.6,25.5,30.29,SSE,162,6.0,12.0,36,0.00,,,0.00,Wunderground v.1.15,2014-01-18 16:25:00,
2014-01-18 10:35:00,52.4,26.2,30.29,SSE,148,5.0,12.0,36,0.00,,,0.00,Wunderground v.1.15,2014-01-18 16:35:00,
2014-01-18 10:40:00,52.7,23.6,30.28,South,185,6.0,6.0,32,0.00,,,0.00,Wunderground v.1.15,2014-01-18 16:40:00,
2014-01-18 10:45:00,52.9,23.8,30.28,SSE,163,7.0,7.0,32,0.00,,,0.00,Wunderground v.1.15,2014-01-18 16:45:00,
2014-01-18 10:50:00,53.2,24.8,30.28,SSW,194,7.0,12.0,33,0.00,,,0.00,Wunderground v.1.15,2014-01-18 16:50:00,
2014-01-18 10:55:00,53.4,26.4,30.28,South,170,6.0,12.0,35,0.00,,,0.00,Wunderground v.1.15,2014-01-18 16:55:00,
2014-01-18 11:00:00,53.9,25.4,30.28,SSW,194,7.0,7.0,33,0.00,,,0.00,Wunderground v.1.15,2014-01-18 17:00:00,
2014-01-18 11:10:00,54.2,25.7,30.27,SW,220,8.0,8.0,33,0.00,,,0.00,Wunderground v.1.15,2014-01-18 17:10:00,
2014-01-18 11:15:00,54.7,24.6,30.27,South,187,7.0,10.0,31,0.00,,,0.00,Wunderground v.1.15,2014-01-18 17:15:00,
2014-01-18 11:20:00,54.6,24.5,30.26,SSE,149,7.0,7.0,31,0.00,,,0.00,Wunderground v.1.15,2014-01-18 17:20:00,
2014-01-18 11:25:00,55.2,25.1,30.26,SSW,212,7.0,12.0,31,0.00,,,0.00,Wunderground v.1.15,2014-01-18 17:25:00,
2014-01-18 11:30:00,55.8,25.6,30.26,SSE,153,6.0,6.0,31,0.00,,,0.00,Wunderground v.1.15,2014-01-18 17:30:00,
2014-01-18 11:35:00,55.9,23.2,30.25,South,191,5.0,12.0,28,0.00,,,0.00,Wunderground v.1.15,2014-01-18 17:35:00,
2014-01-18 11:40:00,56.3,25.2,30.25,SSE,155,5.0,12.0,30,0.00,,,0.00,Wunderground v.1.15,2014-01-18 17:40:00,
2014-01-18 11:45:00,56.4,22.8,30.25,WSW,239,6.0,12.0,27,0.00,,,0.00,Wunderground v.1.15,2014-01-18 17:45:00,
2014-01-18 11:50:00,56.2,24.3,30.24,South,176,7.0,7.0,29,0.00,,,0.00,Wunderground v.1.15,2014-01-18 17:50:00,
2014-01-18 11:55:00,56.5,25.4,30.24,South,179,7.0,8.0,30,0.00,,,0.00,Wunderground v.1.15,2014-01-18 17:55:00,
2014-01-18 12:00:00,56.7,25.6,30.23,South,174,6.0,6.0,30,0.00,,,0.00,Wunderground v.1.15,2014-01-18 18:00:00,
2014-01-18 12:05:00,57.0,25.8,30.23,SE,144,6.0,12.0,30,0.00,,,0.00,Wunderground v.1.15,2014-01-18 18:05:00,
2014-01-18 12:15:00,57.6,27.9,30.22,WSW,251,7.0,12.0,32,0.00,,,0.00,Wunderground v.1.15,2014-01-18 18:15:00,
2014-01-18 12:20:00,57.7,28.0,30.22,SW,214,6.0,6.0,32,0.00,,,0.00,Wunderground v.1.15,2014-01-18 18:20:00,
2014-01-18 12:25:00,57.5,28.6,30.22,SSW,210,7.0,7.0,33,0.00,,,0.00,Wunderground v.1.15,2014-01-18 18:25:00,
2014-01-18 12:30:00,57.8,28.9,30.21,SSW,200,7.0,7.0,33,0.00,,,0.00,Wunderground v.1.15,2014-01-18 18:30:00,
2014-01-18 12:35:00,58.3,30.0,30.21,SW,214,6.0,9.0,34,0.00,,,0.00,Wunderground v.1.15,2014-01-18 18:35:00,
2014-01-18 12:45:00,58.3,29.3,30.20,SW,215,6.0,12.0,33,0.00,,,0.00,Wunderground v.1.15,2014-01-18 18:45:00,
2014-01-18 12:50:00,58.4,30.1,30.20,SSW,212,6.0,6.0,34,0.00,,,0.00,Wunderground v.1.15,2014-01-18 18:50:00,
2014-01-18 12:55:00,58.4,29.4,30.19,WSW,246,7.0,8.0,33,0.00,,,0.00,Wunderground v.1.15,2014-01-18 18:55:00,
2014-01-18 13:00:00,58.8,31.2,30.19,SW,217,7.0,12.0,35,0.00,,,0.00,Wunderground v.1.15,2014-01-18 19:00:00,
2014-01-18 13:05:00,58.5,30.2,30.19,WSW,243,8.0,12.0,34,0.00,,,0.00,Wunderground v.1.15,2014-01-18 19:05:00,
2014-01-18 13:10:00,58.5,30.9,30.19,SW,224,8.0,12.0,35,0.00,,,0.00,Wunderground v.1.15,2014-01-18 19:10:00,
2014-01-18 13:20:00,58.6,28.8,30.18,WSW,241,8.0,12.0,32,0.00,,,0.00,Wunderground v.1.15,2014-01-18 19:20:00,
2014-01-18 13:25:00,58.5,28.7,30.18,SW,229,9.0,12.0,32,0.00,,,0.00,Wunderground v.1.15,2014-01-18 19:25:00,
2014-01-18 13:30:00,59.1,30.0,30.18,SW,228,8.0,8.0,33,0.00,,,0.00,Wunderground v.1.15,2014-01-18 19:30:00,
2014-01-18 13:35:00,59.1,30.0,30.18,SW,226,7.0,12.0,33,0.00,,,0.00,Wunderground v.1.15,2014-01-18 19:35:00,
2014-01-18 13:40:00,59.0,29.9,30.18,WSW,250,7.0,7.0,33,0.00,,,0.00,Wunderground v.1.15,2014-01-18 19:40:00,
2014-01-18 13:45:00,58.6,30.3,30.17,SW,230,9.0,9.0,34,0.00,,,0.00,Wunderground v.1.15,2014-01-18 19:45:00,
2014-01-18 13:50:00,58.8,30.5,30.17,SW,228,10.0,10.0,34,0.00,,,0.00,Wunderground v.1.15,2014-01-18 19:50:00,
2014-01-18 13:55:00,58.7,31.1,30.17,SSW,198,9.0,12.0,35,0.00,,,0.00,Wunderground v.1.15,2014-01-18 19:55:00,
2014-01-18 14:00:00,58.8,29.0,30.17,WSW,240,9.0,12.0,32,0.00,,,0.00,Wunderground v.1.15,2014-01-18 20:00:00,
2014-01-18 14:05:00,58.8,29.7,30.17,SSW,206,9.0,12.0,33,0.00,,,0.00,Wunderground v.1.15,2014-01-18 20:05:00,
2014-01-18 14:10:00,59.6,30.4,30.17,SW,235,7.0,14.0,33,0.00,,,0.00,Wunderground v.1.15,2014-01-18 20:10:00,
2014-01-18 14:20:00,58.7,30.4,30.17,WSW,237,10.0,15.0,34,0.00,,,0.00,Wunderground v.1.15,2014-01-18 20:20:00,
2014-01-18 14:25:00,58.6,31.0,30.17,WSW,241,9.0,15.0,35,0.00,,,0.00,Wunderground v.1.15,2014-01-18 20:25:00,
2014-01-18 14:30:00,58.8,31.2,30.17,South,191,9.0,9.0,35,0.00,,,0.00,Wunderground v.1.15,2014-01-18 20:30:00,
2014-01-18 14:35:00,58.8,31.9,30.17,SW,229,9.0,12.0,36,0.00,,,0.00,Wunderground v.1.15,2014-01-18 20:35:00,
2014-01-18 14:40:00,59.0,32.7,30.17,SSW,209,8.0,8.0,37,0.00,,,0.00,Wunderground v.1.15,2014-01-18 20:40:00,
2014-01-18 14:45:00,58.9,32.7,30.17,SW,232,8.0,11.0,37,0.00,,,0.00,Wunderground v.1.15,2014-01-18 20:45:00,
2014-01-18 14:55:00,59.8,34.1,30.17,SSW,211,7.0,12.0,38,0.00,,,0.00,Wunderground v.1.15,2014-01-18 20:55:00,
2014-01-18 15:00:00,59.8,33.5,30.16,South,184,6.0,12.0,37,0.00,,,0.00,Wunderground v.1.15,2014-01-18 21:00:00,
2014-01-18 15:05:00,59.7,33.4,30.17,SW,231,6.0,12.0,37,0.00,,,0.00,Wunderground v.1.15,2014-01-18 21:05:00,
2014-01-18 15:10:00,59.7,34.0,30.17,SW,221,7.0,7.0,38,0.00,,,0.00,Wunderground v.1.15,2014-01-18 21:10:00,
2014-01-18 15:15:00,59.9,34.2,30.16,South,187,7.0,12.0,38,0.00,,,0.00,Wunderground v.1.15,2014-01-18 21:15:00,
2014-01-18 15:25:00,59.5,34.5,30.16,South,180,8.0,12.0,39,0.00,,,0.00,Wunderground v.1.15,2014-01-18 21:25:00,
2014-01-18 15:30:00,59.9,34.2,30.16,SW,231,7.0,12.0,38,0.00,,,0.00,Wunderground v.1.15,2014-01-18 21:30:00,
2014-01-18 15:35:00,59.9,34.2,30.16,South,176,6.0,12.0,38,0.00,,,0.00,Wunderground v.1.15,2014-01-18 21:35:00,
2014-01-18 15:40:00,60.0,34.3,30.16,SSW,193,7.0,12.0,38,0.00,,,0.00,Wunderground v.1.15,2014-01-18 21:40:00,
2014-01-18 15:45:00,59.7,34.7,30.16,SW,219,7.0,12.0,39,0.00,,,0.00,Wunderground v.1.15,2014-01-18 21:45:00,
2014-01-18 15:50:00,59.6,34.6,30.16,SW,222,8.0,12.0,39,0.00,,,0.00,Wunderground v.1.15,2014-01-18 21:50:00,
2014-01-18 16:00:00,59.5,33.9,30.16,SW,236,8.0,12.0,38,0.00,,,0.00,Wunderground v.1.15,2014-01-18 22:00:00,
2014-01-18 16:05:00,59.2,34.2,30.16,SW,236,9.0,12.0,39,0.00,,,0.00,Wunderground v.1.15,2014-01-18 22:05:00,
2014-01-18 16:10:00,59.4,35.1,30.16,SW,236,8.0,8.0,40,0.00,,,0.00,Wunderground v.1.15,2014-01-18 22:10:00,
2014-01-18 16:15:00,59.3,35.0,30.16,SW,232,7.0,12.0,40,0.00,,,0.00,Wunderground v.1.15,2014-01-18 22:15:00,
2014-01-18 16:20:00,59.4,35.7,30.16,SW,223,6.0,6.0,41,0.00,,,0.00,Wunderground v.1.15,2014-01-18 22:20:00,
2014-01-18 16:30:00,59.0,34.7,30.15,West,264,7.0,7.0,40,0.00,,,0.00,Wunderground v.1.15,2014-01-18 22:30:00,
2014-01-18 16:35:00,58.9,35.8,30.15,SSW,208,7.0,12.0,42,0.00,,,0.00,Wunderground v.1.15,2014-01-18 22:35:00,
2014-01-18 16:40:00,58.7,35.7,30.15,SW,214,7.0,7.0,42,0.00,,,0.00,Wunderground v.1.15,2014-01-18 22:40:00,
2014-01-18 16:45:00,58.6,35.6,30.15,SW,231,6.0,12.0,42,0.00,,,0.00,Wunderground v.1.15,2014-01-18 22:45:00,
2014-01-18 16:50:00,58.3,35.3,30.15,WSW,250,6.0,12.0,42,0.00,,,0.00,Wunderground v.1.15,2014-01-18 22:50:00,
2014-01-18 16:55:00,58.0,35.0,30.15,SW,217,7.0,12.0,42,0.00,,,0.00,Wunderground v.1.15,2014-01-18 22:55:00,
2014-01-18 17:05:00,57.4,35.1,30.14,SW,231,6.0,12.0,43,0.00,,,0.00,Wunderground v.1.15,2014-01-18 23:05:00,
2014-01-18 17:10:00,57.1,35.4,30.14,SSW,210,6.0,12.0,44,0.00,,,0.00,Wunderground v.1.15,2014-01-18 23:10:00,
2014-01-18 17:15:00,56.7,35.0,30.14,WSW,237,6.0,12.0,44,0.00,,,0.00,Wunderground v.1.15,2014-01-18 23:15:00,
2014-01-18 17:20:00,56.3,35.2,30.14,SSW,205,5.0,5.0,45,0.00,,,0.00,Wunderground v.1.15,2014-01-18 23:20:00,
2014-01-18 17:25:00,55.9,35.4,30.15,SW,214,5.0,12.0,46,0.00,,,0.00,Wunderground v.1.15,2014-01-18 23:25:00,
2014-01-18 17:30:00,55.3,35.4,30.15,SW,233,5.0,5.0,47,0.00,,,0.00,Wunderground v.1.15,2014-01-18 23:30:00,
2014-01-18 17:35:00,54.9,36.1,30.15,WSW,242,5.0,12.0,49,0.00,,,0.00,Wunderground v.1.15,2014-01-18 23:35:00,
2014-01-18 17:40:00,54.5,36.2,30.15,SW,218,5.0,12.0,50,0.00,,,0.00,Wunderground v.1.15,2014-01-18 23:40:00,
2014-01-18 17:45:00,54.1,36.4,30.15,SW,232,5.0,12.0,51,0.00,,,0.00,Wunderground v.1.15,2014-01-18 23:45:00,
2014-01-18 17:50:00,53.8,36.6,30.15,SW,229,4.0,12.0,52,0.00,,,0.00,Wunderground v.1.15,2014-01-18 23:50:00,
2014-01-18 17:55:00,53.6,36.9,30.15,SW,224,5.0,12.0,53,0.00,,,0.00,Wunderground v.1.15,2014-01-18 23:55:00,
2014-01-18 18:05:00,53.1,37.3,30.15,SW,234,4.0,7.0,55,0.00,,,0.00,Wunderground v.1.15,2014-01-19 00:05:00,
2014-01-18 18:10:00,52.8,37.5,30.15,SW,222,4.0,12.0,56,0.00,,,0.00,Wunderground v.1.15,2014-01-19 00:10:00,
2014-01-18 18:15:00,52.5,37.7,30.15,SSW,195,3.0,12.0,57,0.00,,,0.00,Wunderground v.1.15,2014-01-19 00:15:00,
2014-01-18 18:20:00,52.2,37.9,30.15,SSW,203,3.0,12.0,58,0.00,,,0.00,Wunderground v.1.15,2014-01-19 00:20:00,
2014-01-18 18:25:00,52.1,38.2,30.15,SW,214,3.0,12.0,59,0.00,,,0.00,Wunderground v.1.15,2014-01-19 00:25:00,
2014-01-18 18:30:00,52.0,38.5,30.14,South,188,3.0,3.0,60,0.00,,,0.00,Wunderground v.1.15,2014-01-19 00:30:00,
2014-01-18 18:40:00,51.5,38.1,30.14,South,191,2.0,12.0,60,0.00,,,0.00,Wunderground v.1.15,2014-01-19 00:40:00,
2014-01-18 18:45:00,51.4,38.4,30.14,South,180,2.0,12.0,61,0.00,,,0.00,Wunderground v.1.15,2014-01-19 00:45:00,
2014-01-18 18:50:00,51.3,38.3,30.14,South,188,3.0,12.0,61,0.00,,,0.00,Wunderground v.1.15,2014-01-19 00:50:00,
2014-01-18 18:55:00,51.2,38.2,30.14,South,174,3.0,12.0,61,0.00,,,0.00,Wunderground v.1.15,2014-01-19 00:55:00,
2014-01-18 19:00:00,51.0,38.0,30.14,South,178,3.0,3.0,61,0.00,,,0.00,Wunderground v.1.15,2014-01-19 01:00:00,
2014-01-18 19:10:00,50.7,38.6,30.14,South,171,3.0,3.0,63,0.00,,,0.00,Wunderground v.1.15,2014-01-19 01:10:00,
2014-01-18 19:15:00,50.5,38.4,30.14,South,170,3.0,12.0,63,0.00,,,0.00,Wunderground v.1.15,2014-01-19 01:15:00,
2014-01-18 19:20:00,50.5,38.4,30.14,SW,219,2.0,2.0,63,0.00,,,0.00,Wunderground v.1.15,2014-01-19 01:20:00,
2014-01-18 19:25:00,50.3,38.6,30.14,SSW,212,2.0,12.0,64,0.00,,,0.00,Wunderground v.1.15,2014-01-19 01:25:00,
2014-01-18 19:30:00,50.2,38.9,30.14,SSW,194,2.0,2.0,65,0.00,,,0.00,Wunderground v.1.15,2014-01-19 01:30:00,
2014-01-18 19:35:00,50.0,39.1,30.14,SSW,206,2.0,12.0,66,0.00,,,0.00,Wunderground v.1.15,2014-01-19 01:35:00,
2014-01-18 19:45:00,49.4,39.3,30.14,SW,235,1.0,12.0,68,0.00,,,0.00,Wunderground v.1.15,2014-01-19 01:45:00,
2014-01-18 19:50:00,49.2,39.5,30.14,SW,222,1.0,12.0,69,0.00,,,0.00,Wunderground v.1.15,2014-01-19 01:50:00,
2014-01-18 19:55:00,48.9,39.2,30.15,SW,233,1.0,12.0,69,0.00,,,0.00,Wunderground v.1.15,2014-01-19 01:55:00,
2014-01-18 20:00:00,48.9,39.5,30.15,WSW,252,1.0,12.0,70,0.00,,,0.00,Wunderground v.1.15,2014-01-19 02:00:00,
2014-01-18 20:05:00,48.9,39.9,30.15,WSW,240,2.0,12.0,71,0.00,,,0.00,Wunderground v.1.15,2014-01-19 02:05:00,
2014-01-18 20:15:00,48.6,40.0,30.15,SW,233,1.0,12.0,72,0.00,,,0.00,Wunderground v.1.15,2014-01-19 02:15:00,
2014-01-18 20:20:00,48.6,40.0,30.15,SW,230,1.0,12.0,72,0.00,,,0.00,Wunderground v.1.15,2014-01-19 02:20:00,
2014-01-18 20:25:00,48.4,39.8,30.15,SW,230,1.0,12.0,72,0.00,,,0.00,Wunderground v.1.15,2014-01-19 02:25:00,
2014-01-18 20:30:00,48.3,39.7,30.16,SW,231,0.0,12.0,72,0.00,,,0.00,Wunderground v.1.15,2014-01-19 02:30:00,
2014-01-18 20:35:00,47.7,39.5,30.16,SW,231,0.0,12.0,73,0.00,,,0.00,Wunderground v.1.15,2014-01-19 02:35:00,
2014-01-18 20:40:00,47.2,39.3,30.16,SW,231,0.0,12.0,74,0.00,,,0.00,Wunderground v.1.15,2014-01-19 02:40:00,
2014-01-18 20:45:00,47.2,40.0,30.16,WSW,243,0.0,12.0,76,0.00,,,0.00,Wunderground v.1.15,2014-01-19 02:45:00,
2014-01-18 20:50:00,47.4,40.2,30.16,SSW,212,1.0,12.0,76,0.00,,,0.00,Wunderground v.1.15,2014-01-19 02:50:00,
2014-01-18 20:55:00,46.5,40.3,30.15,SSW,212,1.0,12.0,79,0.00,,,0.00,Wunderground v.1.15,2014-01-19 02:55:00,
2014-01-18 21:00:00,45.2,40.0,30.15,SSW,212,1.0,1.0,82,0.00,,,0.00,Wunderground v.1.15,2014-01-19 03:00:00,
2014-01-18 21:05:00,44.8,39.6,30.15,SSW,212,0.0,12.0,82,0.00,,,0.00,Wunderground v.1.15,2014-01-19 03:05:00,
2014-01-18 21:10:00,45.5,40.0,30.15,SW,222,0.0,12.0,81,0.00,,,0.00,Wunderground v.1.15,2014-01-19 03:10:00,
2014-01-18 21:20:00,46.1,39.9,30.14,SSW,211,1.0,12.0,79,0.00,,,0.00,Wunderground v.1.15,2014-01-19 03:20:00,
2014-01-18 21:25:00,46.0,39.9,30.14,SW,236,1.0,12.0,79,0.00,,,0.00,Wunderground v.1.15,2014-01-19 03:25:00,
2014-01-18 21:30:00,46.1,40.3,30.14,SSW,205,0.0,12.0,80,0.00,,,0.00,Wunderground v.1.15,2014-01-19 03:30:00,
2014-01-18 21:35:00,46.0,40.2,30.14,SW,217,0.0,12.0,80,0.00,,,0.00,Wunderground v.1.15,2014-01-19 03:35:00,
2014-01-18 21:40:00,46.0,40.2,30.14,SW,217,0.0,12.0,80,0.00,,,0.00,Wunderground v.1.15,2014-01-19 03:40:00,
2014-01-18 21:45:00,46.1,40.6,30.14,WSW,240,0.0,12.0,81,0.00,,,0.00,Wunderground v.1.15,2014-01-19 03:45:00,
2014-01-18 21:50:00,46.4,40.9,30.14,WSW,243,1.0,1.0,81,0.00,,,0.00,Wunderground v.1.15,2014-01-19 03:50:00,
2014-01-18 21:55:00,46.4,40.9,30.14,South,171,1.0,2.0,81,0.00,,,0.00,Wunderground v.1.15,2014-01-19 03:55:00,
2014-01-18 22:00:00,46.0,40.5,30.14,WSW,237,1.0,12.0,81,0.00,,,0.00,Wunderground v.1.15,2014-01-19 04:00:00,
2014-01-18 22:05:00,46.1,40.9,30.14,SW,234,1.0,12.0,82,0.00,,,0.00,Wunderground v.1.15,2014-01-19 04:05:00,
2014-01-18 22:10:00,46.3,41.1,30.14,SW,226,2.0,2.0,82,0.00,,,0.00,Wunderground v.1.15,2014-01-19 04:10:00,
2014-01-18 22:15:00,46.2,41.0,30.14,SW,225,2.0,12.0,82,0.00,,,0.00,Wunderground v.1.15,2014-01-19 04:15:00,
2014-01-18 22:25:00,46.1,41.2,30.13,WSW,240,1.0,12.0,83,0.00,,,0.00,Wunderground v.1.15,2014-01-19 04:25:00,
2014-01-18 22:30:00,46.5,41.9,30.13,WSW,257,2.0,2.0,84,0.00,,,0.00,Wunderground v.1.15,2014-01-19 04:30:00,
2014-01-18 22:35:00,46.7,41.8,30.13,SW,225,2.0,12.0,83,0.00,,,0.00,Wunderground v.1.15,2014-01-19 04:35:00,
2014-01-18 22:40:00,46.7,42.1,30.13,SW,232,3.0,3.0,84,0.00,,,0.00,Wunderground v.1.15,2014-01-19 04:40:00,
2014-01-18 22:45:00,46.8,42.2,30.13,SW,230,3.0,4.0,84,0.00,,,0.00,Wunderground v.1.15,2014-01-19 04:45:00,
2014-01-18 22:55:00,46.9,42.6,30.13,WSW,254,3.0,12.0,85,0.00,,,0.00,Wunderground v.1.15,2014-01-19 04:55:00,
2014-01-18 23:00:00,47.2,43.2,30.13,SW,224,3.0,3.0,86,0.00,,,0.00,Wunderground v.1.15,2014-01-19 05:00:00,
2014-01-18 23:05:00,47.2,42.9,30.12,SW,234,3.0,12.0,85,0.00,,,0.00,Wunderground v.1.15,2014-01-19 05:05:00,
2014-01-18 23:10:00,47.1,43.1,30.12,WSW,240,3.0,12.0,86,0.00,,,0.00,Wunderground v.1.15,2014-01-19 05:10:00,
2014-01-18 23:15:00,47.2,43.5,30.12,SW,219,3.0,12.0,87,0.00,,,0.00,Wunderground v.1.15,2014-01-19 05:15:00,
2014-01-18 23:20:00,47.3,43.6,30.12,SW,235,3.0,12.0,87,0.00,,,0.00,Wunderground v.1.15,2014-01-19 05:20:00,
2014-01-18 23:30:00,47.3,43.6,30.12,WNW,297,2.0,2.0,87,0.00,,,0.00,Wunderground v.1.15,2014-01-19 05:30:00,
2014-01-18 23:35:00,47.3,43.9,30.13,WSW,250,1.0,12.0,88,0.00,,,0.00,Wunderground v.1.15,2014-01-19 05:35:00,
2014-01-18 23:40:00,47.3,43.9,30.13,WSW,258,2.0,2.0,88,0.00,,,0.00,Wunderground v.1.15,2014-01-19 05:40:00,
2014-01-18 23:45:00,47.1,43.7,30.12,SW,231,2.0,3.0,88,0.00,,,0.00,Wunderground v.1.15,2014-01-19 05:45:00,
2014-01-18 23:50:00,47.1,44.0,30.12,SW,222,2.0,12.0,89,0.00,,,0.00,Wunderground v.1.15,2014-01-19 05:50:00,